Domremy, Canada
Current Conditions -  °F | °C
As of 8:00 PM on Monday 22 Dec 2014 (Local Time) from CYPA Reporting Station
Light Snow Light Snow  
Wind Chill: 16°   Ceiling: 800
Heat Index: 23°   Visibility: 5mi
Dew Point: 21°   Wind: 6mph
Humidity: 93%   Direction: 270°W
Pressure: 29.96"   Gusts: NA
Location:  52.78°N, 105.73°W
Report Text: CYPA 230200Z 27005KT 5SM -SN OVC008 M05/M06 A2996 RMK ST8 SLP176
Loading
Personal Weather Stations






























Interactive Weather Map New forecast layout! Learn more

10-Day Weather Forecast

Advertisements
Track Severe Weather on mobile